Time;durP1;ratioP1;P1;durP2;ratioP2;P2;SDS_P1;SDS_P2;PMS_P1;PMS_P2;Temp;Humidity;BMP_temperature;BMP_pressure;BME280_temperature;BME280_humidity;BME280_pressure;Samples;Min_cycle;Max_cycle;Signal;HPM_P1;HPM_P2
2023/07/29 00:00:01;;;;;;;4.40;3.60;;;;;;;18.68;65.33;99055.08;105708;1256;72734;-72
2023/07/29 00:02:38;;;;;;;8.70;3.80;;;;;;;18.64;66.05;99060.05;105132;1260;60422;-72
2023/07/29 00:05:06;;;;;;;6.80;3.60;;;;;;;18.60;66.42;99057.50;105699;1256;60425;-72
2023/07/29 00:07:34;;;;;;;8.10;3.70;;;;;;;18.55;66.73;99054.12;108034;1254;73835;-73
2023/07/29 00:10:01;;;;;;;5.20;4.20;;;;;;;18.52;67.02;99055.61;107119;1255;68713;-73
2023/07/29 00:12:29;;;;;;;4.60;3.60;;;;;;;18.51;67.26;99055.27;105710;1259;71326;-74
2023/07/29 00:14:56;;;;;;;7.00;3.80;;;;;;;18.49;67.67;99052.33;105776;1256;60469;-73
2023/07/29 00:17:24;;;;;;;5.90;4.00;;;;;;;18.48;67.86;99051.48;105773;1254;60501;-72
2023/07/29 00:19:51;;;;;;;5.30;3.50;;;;;;;18.46;68.21;99050.86;105689;1256;73913;-74
2023/07/29 00:22:18;;;;;;;6.10;3.50;;;;;;;18.44;68.41;99046.36;105736;1254;70037;-74
2023/07/29 00:24:53;;;;;;;4.10;3.60;;;;;;;18.51;68.45;99046.83;105877;1254;71395;-73
2023/07/29 00:27:21;;;;;;;6.10;3.40;;;;;;;18.55;68.54;99047.55;105934;1254;61937;-73
2023/07/29 00:29:48;;;;;;;4.20;3.80;;;;;;;18.53;68.70;99049.27;105644;1254;60509;-73
2023/07/29 00:32:16;;;;;;;4.70;4.00;;;;;;;18.51;68.82;99042.63;105893;1254;74042;-72
2023/07/29 00:34:44;;;;;;;4.60;3.40;;;;;;;18.51;68.98;99046.33;105944;1259;69029;-72
2023/07/29 00:37:12;;;;;;;5.20;3.80;;;;;;;18.51;69.22;99047.30;108997;1252;71055;-74
2023/07/29 00:39:40;;;;;;;7.00;3.60;;;;;;;18.49;69.51;99044.84;106834;1259;60856;-72
2023/07/29 00:42:09;;;;;;;4.40;3.70;;;;;;;18.47;69.50;99049.59;106659;1259;60350;-75
2023/07/29 00:44:36;;;;;;;7.00;4.10;;;;;;;18.46;69.64;99055.77;105669;1258;73608;-73
2023/07/29 00:47:04;;;;;;;4.90;3.80;;;;;;;18.47;69.83;99055.67;105845;1259;69308;-71
2023/07/29 00:49:32;;;;;;;4.00;3.20;;;;;;;18.48;69.88;99056.27;105773;1254;70615;-73
2023/07/29 00:51:59;;;;;;;4.90;3.50;;;;;;;18.56;69.88;99053.98;105622;1259;61968;-74
2023/07/29 00:54:27;;;;;;;3.80;3.20;;;;;;;18.61;69.76;99052.58;105540;1254;60899;-73
2023/07/29 00:56:54;;;;;;;4.10;3.70;;;;;;;18.60;69.95;99052.39;105753;1259;73847;-70
2023/07/29 00:59:22;;;;;;;5.80;3.30;;;;;;;18.59;69.94;99046.55;105675;1254;69991;-73
2023/07/29 01:01:50;;;;;;;6.30;3.90;;;;;;;18.58;70.30;99046.98;105597;1254;72589;-70
2023/07/29 01:04:17;;;;;;;4.20;3.50;;;;;;;18.56;70.43;99045.48;105704;1256;60550;-69
2023/07/29 01:07:08;;;;;;;3.90;3.20;;;;;;;18.54;70.53;99043.49;106058;1256;60359;-71
2023/07/29 01:10:05;;;;;;;7.20;3.70;;;;;;;18.52;70.66;99043.49;105620;1254;74454;-72
2023/07/29 01:12:40;;;;;;;5.50;3.40;;;;;;;18.52;70.75;99044.04;105407;1260;68923;-69
2023/07/29 01:15:16;;;;;;;3.50;3.10;;;;;;;18.59;70.75;99043.55;105672;1253;72773;-74
2023/07/29 01:17:55;;;;;;;6.40;3.60;;;;;;;18.59;70.70;99044.63;105490;1252;60409;-73
2023/07/29 01:20:24;;;;;;;5.40;3.50;;;;;;;18.55;70.99;99045.89;105420;1254;60563;-71
2023/07/29 01:22:51;;;;;;;5.90;3.50;;;;;;;18.52;71.11;99043.13;105627;1254;72968;-70
2023/07/29 01:25:19;;;;;;;5.30;3.40;;;;;;;18.49;71.22;99047.65;105428;1254;70283;-70
2023/07/29 01:27:48;;;;;;;5.00;3.50;;;;;;;18.47;71.57;99043.30;105423;1256;72625;-72
2023/07/29 01:30:16;;;;;;;4.00;3.40;;;;;;;18.46;71.63;99042.41;105408;1254;61678;-72
2023/07/29 01:32:50;;;;;;;7.00;3.60;;;;;;;18.53;71.69;99050.52;105501;1259;60390;-74
2023/07/29 01:35:28;;;;;;;6.20;3.50;;;;;;;18.57;71.65;99051.25;105445;1255;72631;-70
2023/07/29 01:38:14;;;;;;;6.80;3.80;;;;;;;18.56;71.67;99056.51;106462;1254;69993;-69
2023/07/29 01:40:41;;;;;;;7.80;3.60;;;;;;;18.53;71.88;99052.08;105764;1259;72488;-70
2023/07/29 01:43:09;;;;;;;7.60;3.70;;;;;;;18.52;71.93;99051.03;105478;1253;60530;-71
2023/07/29 01:45:38;;;;;;;5.60;4.10;;;;;;;18.50;71.98;99049.01;105388;1254;60434;-71
2023/07/29 01:48:06;;;;;;;4.00;3.10;;;;;;;18.46;72.05;99052.80;105398;1254;72617;-73
2023/07/29 01:50:34;;;;;;;5.80;3.40;;;;;;;18.43;72.29;99049.46;105489;1259;68710;-71
2023/07/29 01:53:02;;;;;;;4.50;3.50;;;;;;;18.49;72.25;99050.97;105541;1257;71538;-71
2023/07/29 01:55:29;;;;;;;4.00;3.00;;;;;;;18.51;72.20;99053.83;105440;1261;60544;-73
2023/07/29 01:57:58;;;;;;;3.90;3.60;;;;;;;18.48;72.35;99055.63;105456;1254;60435;-73
2023/07/29 02:00:26;;;;;;;3.60;3.20;;;;;;;18.44;72.45;99052.70;105387;1259;73876;-70
2023/07/29 02:02:53;;;;;;;4.40;3.90;;;;;;;18.42;72.47;99053.36;105262;1260;68870;-71
2023/07/29 02:05:21;;;;;;;4.50;4.10;;;;;;;18.40;72.69;99055.94;105597;1254;71305;-73
2023/07/29 02:07:48;;;;;;;10.80;3.90;;;;;;;18.38;72.81;99049.35;106869;1256;60541;-71
2023/07/29 02:10:16;;;;;;;9.30;3.30;;;;;;;18.40;72.89;99050.20;105464;1255;60537;-72
2023/07/29 02:12:43;;;;;;;5.70;3.60;;;;;;;18.48;72.72;99048.70;105335;1256;73804;-75
2023/07/29 02:15:11;;;;;;;4.70;3.70;;;;;;;18.49;72.73;99049.36;105728;1260;69028;-71
2023/07/29 02:17:42;;;;;;;5.30;4.00;;;;;;;18.46;72.79;99054.45;105414;1256;71441;-71
2023/07/29 02:20:10;;;;;;;4.80;4.30;;;;;;;18.43;72.95;99056.01;105368;1255;60558;-71
2023/07/29 02:22:38;;;;;;;6.80;3.50;;;;;;;18.40;73.10;99060.69;105459;1254;60442;-68
2023/07/29 02:25:07;;;;;;;5.60;4.80;;;;;;;18.37;73.27;99061.53;105467;1256;74056;-70
2023/07/29 02:27:34;;;;;;;8.70;3.90;;;;;;;18.37;73.33;99063.56;105904;1254;72105;-69
2023/07/29 02:30:02;;;;;;;5.40;3.60;;;;;;;18.42;73.05;99059.33;105140;1254;71408;-72
2023/07/29 02:32:30;;;;;;;5.80;3.80;;;;;;;18.44;73.06;99056.63;105509;1254;60488;-69
2023/07/29 02:34:58;;;;;;;5.50;3.60;;;;;;;18.42;73.20;99051.75;105425;1259;60437;-68
2023/07/29 02:37:25;;;;;;;6.20;3.80;;;;;;;18.40;73.33;99051.33;106403;1254;73768;-68
2023/07/29 02:39:53;;;;;;;5.60;4.10;;;;;;;18.38;73.52;99053.54;105599;1254;72126;-73
2023/07/29 02:42:21;;;;;;;6.30;3.80;;;;;;;18.34;73.56;99053.73;105705;1256;71851;-71
2023/07/29 02:44:48;;;;;;;4.20;3.50;;;;;;;18.33;73.70;99056.61;105578;1256;61716;-69
2023/07/29 02:47:16;;;;;;;3.30;2.90;;;;;;;18.41;73.46;99053.44;105427;1254;60614;-69
2023/07/29 02:49:44;;;;;;;4.80;3.20;;;;;;;18.46;73.42;99053.13;105767;1254;72727;-70
2023/07/29 02:52:11;;;;;;;6.50;3.80;;;;;;;18.46;73.38;99056.45;105688;1259;69475;-72
2023/07/29 02:54:39;;;;;;;3.80;3.20;;;;;;;18.43;73.44;99057.36;105753;1256;72693;-71
2023/07/29 02:57:06;;;;;;;6.90;3.60;;;;;;;18.39;73.45;99059.76;105671;1258;60494;-70
2023/07/29 02:59:34;;;;;;;6.70;3.50;;;;;;;18.36;73.63;99061.50;105763;1259;60329;-71
2023/07/29 03:02:02;;;;;;;4.60;4.00;;;;;;;18.33;73.77;99060.48;105617;1258;73746;-73
2023/07/29 03:04:30;;;;;;;6.50;4.10;;;;;;;18.38;73.75;99060.73;106053;1258;70087;-71
2023/07/29 03:07:01;;;;;;;6.80;3.80;;;;;;;18.43;73.61;99057.36;106193;1259;71179;-70
2023/07/29 03:09:29;;;;;;;7.10;4.90;;;;;;;18.42;73.65;99065.61;105363;1258;60424;-72
2023/07/29 03:11:56;;;;;;;5.20;4.10;;;;;;;18.39;73.81;99068.62;105487;1261;60439;-73
2023/07/29 03:14:24;;;;;;;6.00;5.20;;;;;;;18.33;74.11;99069.02;105530;1254;73886;-73
2023/07/29 03:16:52;;;;;;;4.60;3.70;;;;;;;18.25;74.49;99073.28;105531;1262;70588;-72
2023/07/29 03:19:19;;;;;;;7.00;4.20;;;;;;;18.20;74.65;99074.01;105460;1259;71758;-74
2023/07/29 03:21:47;;;;;;;6.20;4.00;;;;;;;18.21;74.91;99073.98;105344;1256;60713;-71
2023/07/29 03:24:15;;;;;;;6.20;4.70;;;;;;;18.21;74.99;99074.20;105643;1260;60304;-70
2023/07/29 03:26:42;;;;;;;9.60;4.60;;;;;;;18.16;75.33;99077.13;105446;1261;73855;-71
2023/07/29 03:29:13;;;;;;;5.10;4.00;;;;;;;18.10;75.75;99079.64;105459;1256;69067;-72
2023/07/29 03:31:40;;;;;;;6.00;3.80;;;;;;;18.02;76.07;99078.20;105089;1263;72458;-72
2023/07/29 03:34:10;;;;;;;6.50;3.60;;;;;;;17.95;76.60;99075.95;105483;1259;60666;-73
2023/07/29 03:36:38;;;;;;;3.90;3.50;;;;;;;17.97;76.74;99076.17;107284;1255;59306;-74
2023/07/29 03:39:05;;;;;;;7.40;3.60;;;;;;;17.99;76.89;99074.00;107412;1256;72557;-76
2023/07/29 03:41:33;;;;;;;6.20;4.20;;;;;;;17.94;77.15;99074.52;105489;1263;69021;-74
2023/07/29 03:44:00;;;;;;;6.30;4.00;;;;;;;17.90;77.46;99078.36;105412;1259;71247;-72
2023/07/29 03:46:28;;;;;;;4.80;3.80;;;;;;;17.85;77.59;99082.85;105383;1259;60428;-72
2023/07/29 03:48:56;;;;;;;6.10;3.70;;;;;;;17.84;77.71;99079.55;105840;1259;60505;-72
2023/07/29 03:51:24;;;;;;;12.70;4.90;;;;;;;17.92;77.74;99083.95;105082;1255;72657;-71
2023/07/29 03:53:52;;;;;;;7.60;4.40;;;;;;;17.95;77.81;99087.18;105280;1254;68278;-73
2023/07/29 03:56:19;;;;;;;6.20;3.90;;;;;;;17.92;78.12;99084.25;105184;1256;73165;-73
2023/07/29 03:58:50;;;;;;;6.20;5.00;;;;;;;17.87;78.19;99084.05;105384;1256;60513;-75
2023/07/29 04:01:17;;;;;;;6.20;4.70;;;;;;;17.85;78.60;99082.77;105109;1254;60447;-71
2023/07/29 04:03:48;;;;;;;6.10;4.20;;;;;;;17.92;78.56;99081.68;105047;1259;73855;-70
2023/07/29 04:06:16;;;;;;;6.10;4.60;;;;;;;17.96;78.53;99082.38;105842;1256;72815;-71
2023/07/29 04:08:44;;;;;;;7.00;4.70;;;;;;;17.94;78.87;99083.33;105930;1257;71439;-72
2023/07/29 04:11:11;;;;;;;5.70;4.40;;;;;;;17.90;79.15;99080.02;105284;1256;60551;-72
2023/07/29 04:13:39;;;;;;;10.80;5.50;;;;;;;17.87;79.26;99080.92;105549;1254;60460;-70
2023/07/29 04:16:07;;;;;;;4.90;3.90;;;;;;;17.94;79.41;99083.92;105138;1262;73875;-74
2023/07/29 04:18:34;;;;;;;7.20;4.10;;;;;;;17.99;79.49;99084.70;105565;1256;70308;-72
2023/07/29 04:21:02;;;;;;;6.90;5.90;;;;;;;18.01;79.58;99087.19;105648;1256;71188;-70
2023/07/29 04:23:29;;;;;;;8.20;6.40;;;;;;;18.03;79.62;99086.86;105593;1258;60448;-77
2023/07/29 04:25:57;;;;;;;5.40;3.90;;;;;;;18.12;79.61;99087.16;105255;1256;60489;-76
2023/07/29 04:28:24;;;;;;;5.80;4.90;;;;;;;18.29;79.60;99088.95;105250;1256;73833;-76
2023/07/29 04:30:52;;;;;;;5.60;3.50;;;;;;;18.47;79.09;99084.27;105182;1263;69316;-76
2023/07/29 04:33:20;;;;;;;6.00;4.30;;;;;;;18.59;78.50;99082.05;105657;1257;72790;-77
2023/07/29 04:35:47;;;;;;;9.20;4.50;;;;;;;18.67;78.27;99079.83;106374;1256;60500;-78
2023/07/29 04:38:15;;;;;;;6.30;4.80;;;;;;;18.81;77.87;99081.63;108053;1257;58760;-78
2023/07/29 04:40:42;;;;;;;3.80;3.40;;;;;;;18.97;77.34;99082.70;108166;1257;72600;-78
2023/07/29 04:43:10;;;;;;;4.20;3.30;;;;;;;19.15;76.80;99087.63;106092;1257;70169;-76
2023/07/29 04:45:42;;;;;;;5.70;3.50;;;;;;;19.32;76.03;99080.95;105863;1259;72707;-75
2023/07/29 04:48:10;;;;;;;4.10;3.40;;;;;;;19.45;75.52;99083.06;105972;1261;60318;-76
2023/07/29 04:50:38;;;;;;;4.90;4.30;;;;;;;19.57;75.11;99083.16;106652;1256;60293;-77
2023/07/29 04:53:06;;;;;;;4.80;4.20;;;;;;;19.68;74.69;99085.80;107268;1256;73873;-78
2023/07/29 04:55:34;;;;;;;4.30;3.50;;;;;;;19.77;74.35;99082.34;107262;1256;68711;-77
2023/07/29 04:58:02;;;;;;;6.10;3.70;;;;;;;19.85;74.11;99081.55;106514;1259;71784;-78
2023/07/29 05:00:29;;;;;;;6.00;3.40;;;;;;;19.98;73.68;99081.82;106315;1257;60499;-78
2023/07/29 05:02:57;;;;;;;8.00;4.50;;;;;;;20.05;73.29;99081.45;105828;1257;60322;-78
2023/07/29 05:05:25;;;;;;;3.70;3.40;;;;;;;20.10;72.81;99085.13;106882;1261;73119;-76
2023/07/29 05:07:52;;;;;;;4.10;3.70;;;;;;;20.15;72.51;99088.23;108821;1256;68708;-75
2023/07/29 05:10:20;;;;;;;5.80;3.70;;;;;;;20.18;72.36;99085.20;108151;1256;71137;-74
2023/07/29 05:12:48;;;;;;;4.10;3.60;;;;;;;20.20;72.42;99083.73;106085;1258;60583;-73
2023/07/29 05:15:16;;;;;;;4.90;3.70;;;;;;;20.20;72.58;99085.55;105590;1261;61095;-74
2023/07/29 05:17:43;;;;;;;5.50;3.80;;;;;;;20.21;72.74;99081.36;105829;1262;73821;-74
2023/07/29 05:20:11;;;;;;;5.20;3.60;;;;;;;20.32;72.16;99084.65;105967;1256;70077;-72
2023/07/29 05:22:39;;;;;;;4.30;3.20;;;;;;;20.41;72.10;99083.64;106891;1256;72941;-73
2023/07/29 05:25:07;;;;;;;5.10;3.60;;;;;;;20.47;71.66;99088.84;107494;1256;60378;-73
2023/07/29 05:27:35;;;;;;;5.00;3.40;;;;;;;20.45;71.38;99085.31;108374;1256;59177;-76
2023/07/29 05:30:03;;;;;;;3.50;3.20;;;;;;;20.40;71.34;99084.44;108513;1257;72835;-74
2023/07/29 05:32:30;;;;;;;4.10;3.20;;;;;;;20.37;71.19;99085.65;108650;1256;69086;-72
2023/07/29 05:34:58;;;;;;;4.70;4.00;;;;;;;20.36;71.56;99087.95;106994;1256;71475;-72
2023/07/29 05:37:25;;;;;;;4.90;3.70;;;;;;;20.38;71.44;99093.21;108297;1254;60449;-76
2023/07/29 05:39:53;;;;;;;6.30;3.80;;;;;;;20.36;71.42;99091.93;109019;1255;59285;-79
2023/07/29 05:42:20;;;;;;;3.40;3.00;;;;;;;20.38;71.60;99092.08;108934;1256;72478;-75
2023/07/29 05:44:48;;;;;;;3.90;3.40;;;;;;;20.53;71.52;99093.19;106207;1256;68839;-75
2023/07/29 05:47:15;;;;;;;5.70;4.50;;;;;;;20.65;71.15;99093.54;105802;1257;73373;-70
2023/07/29 05:49:43;;;;;;;4.80;4.30;;;;;;;20.64;71.11;99093.91;105108;1263;60455;-73
2023/07/29 05:52:10;;;;;;;5.20;4.20;;;;;;;20.57;70.96;99091.92;105166;1261;60367;-74
2023/07/29 05:54:38;;;;;;;4.20;3.80;;;;;;;20.50;71.25;99091.92;105836;1255;73879;-73
2023/07/29 05:57:06;;;;;;;6.40;3.90;;;;;;;20.50;71.37;99087.65;105769;1256;69001;-75
2023/07/29 05:59:33;;;;;;;5.00;3.80;;;;;;;20.50;71.33;99084.80;105260;1261;71750;-75
2023/07/29 06:02:01;;;;;;;5.00;4.50;;;;;;;20.54;71.57;99090.36;105137;1258;60540;-76
2023/07/29 06:04:29;;;;;;;12.30;10.20;;;;;;;20.63;71.16;99090.89;105796;1257;60435;-75
2023/07/29 06:06:56;;;;;;;9.60;8.00;;;;;;;20.70;70.89;99087.84;107353;1256;73763;-72
2023/07/29 06:09:25;;;;;;;4.00;3.60;;;;;;;20.79;70.66;99083.02;106439;1256;68755;-72
2023/07/29 06:11:53;;;;;;;4.00;3.60;;;;;;;20.86;70.19;99084.47;105548;1259;71458;-73
2023/07/29 06:14:22;;;;;;;3.50;3.10;;;;;;;20.86;69.97;99087.24;105334;1261;60419;-72
2023/07/29 06:16:49;;;;;;;5.20;3.50;;;;;;;20.88;70.01;99087.85;105239;1256;60433;-71
2023/07/29 06:19:20;;;;;;;3.60;3.20;;;;;;;20.90;69.87;99089.28;105265;1257;73825;-72
2023/07/29 06:21:48;;;;;;;3.60;3.30;;;;;;;20.90;69.62;99088.99;105456;1259;68977;-73
2023/07/29 06:24:15;;;;;;;5.40;3.70;;;;;;;20.88;69.86;99089.52;105566;1258;72071;-71
2023/07/29 06:26:43;;;;;;;8.10;7.30;;;;;;;20.86;69.81;99088.20;105284;1259;60748;-72
2023/07/29 06:29:10;;;;;;;4.50;3.60;;;;;;;20.87;69.91;99084.31;105301;1259;60453;-71
2023/07/29 06:31:38;;;;;;;5.00;3.20;;;;;;;21.01;69.91;99079.95;105525;1256;72618;-74
2023/07/29 06:34:05;;;;;;;5.30;3.30;;;;;;;21.26;69.46;99080.05;105164;1256;70800;-71
2023/07/29 06:36:33;;;;;;;7.50;6.30;;;;;;;21.44;68.93;99076.24;107546;1259;72893;-71
2023/07/29 06:39:01;;;;;;;6.20;5.20;;;;;;;21.56;68.36;99082.10;105636;1260;60637;-73
2023/07/29 06:41:29;;;;;;;3.80;3.30;;;;;;;21.54;68.31;99086.41;105552;1261;60832;-71
2023/07/29 06:43:58;;;;;;;5.00;3.60;;;;;;;21.45;68.12;99089.80;105303;1256;73148;-73
2023/07/29 06:46:26;;;;;;;3.80;3.30;;;;;;;21.34;68.38;99086.23;105208;1256;69947;-69
2023/07/29 06:48:53;;;;;;;3.30;2.90;;;;;;;21.23;68.52;99086.45;105535;1261;72257;-72
2023/07/29 06:51:21;;;;;;;5.40;3.50;;;;;;;21.18;68.99;99084.77;105256;1256;60504;-73
2023/07/29 06:53:48;;;;;;;3.80;3.40;;;;;;;21.21;69.21;99085.52;105284;1256;60640;-74
2023/07/29 06:56:15;;;;;;;5.10;3.50;;;;;;;21.29;68.94;99082.35;105240;1260;73996;-73
2023/07/29 06:58:43;;;;;;;3.80;3.40;;;;;;;21.36;68.58;99083.62;105201;1256;68713;-72
2023/07/29 07:01:11;;;;;;;5.00;3.40;;;;;;;21.38;68.48;99080.40;105334;1259;71566;-72
2023/07/29 07:03:38;;;;;;;5.10;4.00;;;;;;;21.37;68.44;99082.66;105282;1260;59251;-73
2023/07/29 07:06:06;;;;;;;5.50;3.70;;;;;;;21.37;68.51;99077.91;105423;1256;60570;-73
2023/07/29 07:08:33;;;;;;;4.70;4.10;;;;;;;21.47;68.70;99082.25;107162;1260;72671;-71
2023/07/29 07:11:01;;;;;;;4.30;3.90;;;;;;;21.61;68.35;99082.47;105682;1260;69074;-71
2023/07/29 07:13:28;;;;;;;3.90;3.60;;;;;;;21.74;67.82;99085.30;105163;1261;71387;-74
2023/07/29 07:15:56;;;;;;;4.00;3.40;;;;;;;21.80;67.01;99090.64;105207;1257;60540;-72
2023/07/29 07:18:24;;;;;;;3.20;3.00;;;;;;;21.79;67.20;99089.61;105522;1257;60503;-73
2023/07/29 07:24:16;;;;;;;3.80;3.50;;;;;;;21.78;67.01;99093.50;102231;1292;616129;-71
2023/07/29 07:26:43;;;;;;;3.80;3.20;;;;;;;21.74;67.08;99082.39;104776;1266;59218;-73
2023/07/29 07:29:09;;;;;;;4.50;3.60;;;;;;;21.81;67.52;99086.38;104661;1265;59304;-73
2023/07/29 07:31:36;;;;;;;3.70;3.30;;;;;;;21.91;67.61;99085.86;104904;1263;59338;-71
2023/07/29 07:34:03;;;;;;;4.50;3.60;;;;;;;22.01;67.57;99092.05;105109;1262;70626;-72
2023/07/29 07:36:30;;;;;;;4.30;3.80;;;;;;;22.10;66.88;99089.89;105011;1265;181265;-72
2023/07/29 07:38:57;;;;;;;4.10;3.70;;;;;;;22.17;66.80;99083.52;107491;1259;60050;-72
2023/07/29 07:41:24;;;;;;;4.60;3.50;;;;;;;22.27;66.72;99079.50;106846;1259;59150;-71
2023/07/29 07:43:51;;;;;;;4.80;3.70;;;;;;;22.38;66.63;99072.91;105874;1263;71454;-72
2023/07/29 07:46:17;;;;;;;3.50;3.20;;;;;;;22.51;66.12;99074.86;105514;1259;70843;-72
2023/07/29 07:48:45;;;;;;;5.70;3.60;;;;;;;22.62;65.99;99077.89;105580;1260;73457;-72
2023/07/29 07:51:12;;;;;;;4.20;3.80;;;;;;;22.68;66.08;99085.99;105491;1259;60438;-72
2023/07/29 07:53:40;;;;;;;5.30;3.80;;;;;;;22.74;65.85;99083.63;105243;1259;60383;-74
2023/07/29 07:56:07;;;;;;;3.90;3.60;;;;;;;22.76;65.46;99081.48;104983;1265;73864;-73
2023/07/29 07:58:33;;;;;;;4.10;3.70;;;;;;;22.68;65.69;99085.67;105110;1259;70679;-74
2023/07/29 08:01:07;;;;;;;7.00;4.00;;;;;;;22.57;65.79;99088.38;105259;1259;73090;-70
2023/07/29 08:03:35;;;;;;;4.00;3.70;;;;;;;22.44;66.28;99084.58;105305;1261;59673;-72
2023/07/29 08:06:02;;;;;;;5.10;3.70;;;;;;;22.33;66.72;99082.79;105561;1259;60035;-72
2023/07/29 08:08:28;;;;;;;4.00;3.60;;;;;;;22.25;66.96;99075.20;106829;1255;73629;-73
2023/07/29 08:10:57;;;;;;;5.30;4.20;;;;;;;22.22;67.30;99080.29;106591;1256;69416;-73
2023/07/29 08:13:24;;;;;;;4.20;3.80;;;;;;;22.21;67.52;99076.66;105580;1259;72598;-72
2023/07/29 08:15:51;;;;;;;4.10;3.70;;;;;;;22.24;67.57;99076.75;105409;1254;60262;-74
2023/07/29 08:18:19;;;;;;;4.70;3.60;;;;;;;22.33;67.57;99078.17;105499;1256;60449;-73
2023/07/29 08:20:57;;;;;;;4.70;3.90;;;;;;;22.42;67.43;99077.58;105359;1258;73313;-71
2023/07/29 08:23:27;;;;;;;4.40;3.70;;;;;;;22.48;67.41;99072.20;105227;1256;71135;-73
2023/07/29 08:25:56;;;;;;;4.60;4.10;;;;;;;22.54;67.29;99067.48;105238;1257;73038;-71
2023/07/29 08:28:23;;;;;;;4.40;4.00;;;;;;;22.64;66.84;99071.73;105352;1261;59619;-72
2023/07/29 08:30:50;;;;;;;5.30;4.00;;;;;;;22.75;66.59;99067.50;105571;1256;60432;-74
2023/07/29 08:33:17;;;;;;;4.50;3.80;;;;;;;22.87;66.49;99066.79;105381;1260;73060;-73
2023/07/29 08:35:43;;;;;;;4.50;3.90;;;;;;;23.04;66.35;99062.58;105811;1256;70912;-74
2023/07/29 08:38:11;;;;;;;3.90;3.60;;;;;;;23.24;65.93;99064.98;106169;1260;73086;-73
2023/07/29 08:40:41;;;;;;;5.30;3.90;;;;;;;23.44;65.26;99053.41;108092;1256;58987;-71
2023/07/29 08:43:08;;;;;;;3.70;3.30;;;;;;;23.67;64.78;99050.82;106857;1256;59099;-70
2023/07/29 08:45:36;;;;;;;3.90;3.60;;;;;;;23.93;64.40;99049.82;105878;1260;73082;-71
2023/07/29 08:48:08;;;;;;;4.00;3.70;;;;;;;24.17;63.17;99063.98;106095;1256;70704;-72
2023/07/29 08:50:36;;;;;;;4.10;3.70;;;;;;;24.30;62.55;99050.23;107079;1258;72593;-74
2023/07/29 08:53:05;;;;;;;4.20;3.70;;;;;;;24.44;62.70;99048.67;105832;1256;60785;-73
2023/07/29 08:55:32;;;;;;;6.10;3.30;;;;;;;24.62;61.90;99051.95;105335;1256;60360;-71
2023/07/29 08:57:59;;;;;;;4.90;3.60;;;;;;;24.74;61.47;99052.60;105456;1260;72293;-76
2023/07/29 09:00:27;;;;;;;4.00;3.50;;;;;;;24.81;61.18;99046.61;105748;1256;70630;-75
2023/07/29 09:02:54;;;;;;;4.50;4.10;;;;;;;24.86;60.87;99042.29;105457;1256;72526;-71
2023/07/29 09:05:21;;;;;;;3.60;3.30;;;;;;;24.90;60.91;99041.66;105456;1256;60431;-73
2023/07/29 09:07:48;;;;;;;3.70;3.40;;;;;;;25.01;60.38;99047.10;105580;1258;60649;-74
2023/07/29 09:10:15;;;;;;;4.20;3.50;;;;;;;25.04;60.32;99043.98;106164;1256;73488;-73
2023/07/29 09:12:43;;;;;;;4.20;3.30;;;;;;;24.99;60.13;99046.52;108030;1256;69501;-74
2023/07/29 09:15:10;;;;;;;4.80;4.10;;;;;;;24.91;60.38;99042.52;105748;1256;72014;-76
2023/07/29 09:17:37;;;;;;;4.20;3.60;;;;;;;24.84;60.81;99036.91;105381;1256;60173;-73
2023/07/29 09:20:04;;;;;;;5.20;3.80;;;;;;;24.79;61.07;99050.09;105283;1259;60129;-75
2023/07/29 09:22:31;;;;;;;5.20;3.40;;;;;;;24.70;61.24;99042.21;105319;1259;71719;-75
2023/07/29 09:24:58;;;;;;;5.00;3.60;;;;;;;24.56;61.29;99042.53;105265;1258;70766;-73
2023/07/29 09:27:31;;;;;;;4.70;4.30;;;;;;;24.43;62.02;99038.67;105176;1264;72965;-79
2023/07/29 09:29:58;;;;;;;4.30;3.90;;;;;;;24.40;62.48;99039.02;105344;1257;60084;-78
2023/07/29 09:32:25;;;;;;;5.80;3.50;;;;;;;24.41;62.35;99039.41;105449;1257;60246;-77
2023/07/29 09:34:51;;;;;;;3.50;3.20;;;;;;;24.47;61.95;99051.16;105369;1263;72303;-77
2023/07/29 09:37:22;;;;;;;4.10;3.40;;;;;;;24.70;61.83;99041.77;105400;1256;71382;-75
2023/07/29 09:39:49;;;;;;;3.00;2.80;;;;;;;25.16;60.50;99035.98;105648;1257;72984;-76
2023/07/29 09:42:23;;;;;;;3.40;3.10;;;;;;;25.54;59.42;99037.09;106335;1256;60521;-76
2023/07/29 09:44:54;;;;;;;3.30;3.00;;;;;;;25.83;58.75;99032.28;107478;1256;59706;-76
2023/07/29 09:47:22;;;;;;;3.90;3.50;;;;;;;25.97;57.90;99037.09;106021;1258;71827;-75
2023/07/29 09:49:49;;;;;;;4.40;3.20;;;;;;;25.96;58.07;99041.56;105300;1261;68879;-77
2023/07/29 09:52:17;;;;;;;3.70;3.40;;;;;;;26.06;57.89;99036.13;105860;1256;71278;-76
2023/07/29 09:54:44;;;;;;;4.60;3.20;;;;;;;26.32;57.65;99035.95;105211;1262;59636;-77
2023/07/29 09:57:13;;;;;;;4.40;3.00;;;;;;;26.74;56.04;99032.31;105768;1256;59999;-75
2023/07/29 09:59:40;;;;;;;4.40;3.30;;;;;;;27.22;54.93;99026.94;105458;1257;71622;-77
2023/07/29 10:02:14;;;;;;;3.30;3.00;;;;;;;27.71;53.81;99024.58;105483;1261;69133;-78
2023/07/29 10:04:43;;;;;;;4.20;3.20;;;;;;;28.19;52.47;99021.58;105415;1260;71468;-78
2023/07/29 10:07:11;;;;;;;2.70;2.50;;;;;;;28.64;51.34;99018.45;105462;1256;60216;-76
2023/07/29 10:09:39;;;;;;;3.80;2.90;;;;;;;29.16;50.15;99012.54;105996;1259;61235;-76
2023/07/29 10:12:06;;;;;;;3.60;2.50;;;;;;;29.55;48.77;99012.86;106262;1256;73092;-78
2023/07/29 10:14:33;;;;;;;2.80;2.50;;;;;;;29.66;48.45;99009.98;108549;1256;70339;-76
2023/07/29 10:17:00;;;;;;;3.30;2.80;;;;;;;29.65;48.58;99012.90;106720;1256;71994;-76
2023/07/29 10:19:26;;;;;;;3.10;2.80;;;;;;;29.73;48.58;99010.06;106554;1259;60244;-76
2023/07/29 10:21:53;;;;;;;3.00;2.80;;;;;;;29.83;48.77;99005.19;106577;1256;60245;-77
2023/07/29 10:24:28;;;;;;;2.60;2.40;;;;;;;30.00;48.39;99006.80;105963;1261;73665;-77
2023/07/29 10:27:00;;;;;;;3.30;2.90;;;;;;;30.21;48.10;99004.39;106214;1261;69040;-76
2023/07/29 10:29:32;;;;;;;4.00;2.90;;;;;;;30.46;47.77;99006.00;106159;1256;71248;-76
2023/07/29 10:32:02;;;;;;;2.80;2.60;;;;;;;30.56;47.13;99011.20;105719;1256;60209;-78
2023/07/29 10:34:30;;;;;;;3.50;3.20;;;;;;;30.46;46.99;99006.38;105823;1256;59709;-75
2023/07/29 10:36:56;;;;;;;3.30;2.50;;;;;;;30.35;46.64;99011.45;105549;1256;70880;-76
2023/07/29 10:39:26;;;;;;;3.10;2.70;;;;;;;30.31;46.71;99003.40;105968;1257;69434;-74
2023/07/29 10:42:04;;;;;;;3.10;2.80;;;;;;;30.34;46.89;99004.42;106035;1260;73203;-76
2023/07/29 10:44:42;;;;;;;3.60;2.70;;;;;;;30.41;46.41;99001.62;107225;1256;60072;-75
2023/07/29 10:47:17;;;;;;;3.10;2.80;;;;;;;30.53;46.08;99001.55;107917;1257;60162;-75
2023/07/29 10:49:45;;;;;;;3.20;3.00;;;;;;;30.64;46.35;99006.79;106486;1260;73278;-74
2023/07/29 10:52:17;;;;;;;2.60;2.40;;;;;;;30.64;45.74;99009.17;105656;1256;70694;-76
2023/07/29 10:54:44;;;;;;;2.60;2.40;;;;;;;30.68;45.25;99012.15;106303;1256;71147;-76
2023/07/29 10:57:15;;;;;;;2.40;2.20;;;;;;;30.69;45.43;99007.80;106025;1256;60196;-77
2023/07/29 10:59:57;;;;;;;3.40;3.00;;;;;;;30.93;45.28;99007.66;105559;1256;61077;-76
2023/07/29 11:02:32;;;;;;;3.80;2.80;;;;;;;31.37;44.69;99008.48;105726;1261;71531;-74
2023/07/29 11:05:04;;;;;;;3.10;2.50;;;;;;;31.68;44.56;99003.09;105424;1260;70719;-76
2023/07/29 11:07:32;;;;;;;3.30;2.40;;;;;;;31.93;43.78;99001.95;105486;1256;73187;-77
2023/07/29 11:10:04;;;;;;;3.90;2.60;;;;;;;32.09;43.40;98996.92;105585;1256;60428;-75
2023/07/29 11:12:47;;;;;;;2.70;2.50;;;;;;;32.39;43.05;99007.80;106498;1256;60101;-75
2023/07/29 11:15:27;;;;;;;2.50;2.30;;;;;;;32.64;41.57;99010.54;107321;1260;71959;-76
2023/07/29 11:18:00;;;;;;;2.70;2.50;;;;;;;32.71;41.68;99001.52;108858;1256;69442;-77
2023/07/29 11:20:32;;;;;;;2.80;2.60;;;;;;;32.81;41.94;99001.45;107680;1257;72313;-76
2023/07/29 11:23:00;;;;;;;4.90;2.80;;;;;;;33.08;41.70;99000.91;105720;1261;59518;-78
2023/07/29 11:25:28;;;;;;;3.30;2.30;;;;;;;33.44;40.46;99002.91;107592;1256;60230;-75
2023/07/29 11:27:56;;;;;;;2.80;2.60;;;;;;;33.59;40.39;98995.72;108035;1256;71762;-74
2023/07/29 11:30:26;;;;;;;3.30;2.30;;;;;;;33.60;40.63;98989.80;108035;1259;69423;-74
2023/07/29 11:32:57;;;;;;;2.10;1.90;;;;;;;33.70;40.40;98989.45;107959;1258;71884;-76